Rush, New York
Current Conditions -  °F | °C
As of 11:54 AM on Thursday 18 Dec 2014 (Local Time) from KROC Reporting Station
Overcast Overcast  
Wind Chill: 23°   Ceiling: 2000
Heat Index: 33°   Visibility: 10mi
Dew Point: 25°   Wind: 14mph
Humidity: 72%   Direction: 300°WNW
Pressure: 30.04"   Gusts: 23mph
Location:  43°N, 77.65°W
Report Text: KROC 181654Z 30012G20KT 10SM BKN020 OVC026 01/M04 A3004 RMK AO2 SLP182 T00061039
Loading
Personal Weather Stations






























Interactive Weather Map New forecast layout! Learn more

10-Day Weather Forecast

Advertisements
Track Severe Weather on mobile